Time;durP1;ratioP1;P1;durP2;ratioP2;P2;SDS_P1;SDS_P2;PMS_P1;PMS_P2;Temp;Humidity;BMP_temperature;BMP_pressure;BME280_temperature;BME280_humidity;BME280_pressure;Samples;Min_cycle;Max_cycle;Signal;HPM_P1;HPM_P2
2023/09/27 00:00:28;;;;;;;24.73;19.10;;;15.10;99.90;;;;;;4896882;29;20082;-75
2023/09/27 00:03:14;;;;;;;25.08;19.08;;;15.10;99.90;;;;;;4880345;29;20088;-77
2023/09/27 00:06:00;;;;;;;23.77;18.63;;;15.10;99.90;;;;;;4896580;29;20052;-78
2023/09/27 00:08:46;;;;;;;25.20;18.80;;;15.10;99.90;;;;;;4880105;29;20111;-77
2023/09/27 00:11:32;;;;;;;20.90;16.92;;;15.00;99.90;;;;;;4882595;29;20508;-77
2023/09/27 00:14:18;;;;;;;23.98;18.30;;;15.00;99.90;;;;;;4896686;29;20515;-75
2023/09/27 00:17:04;;;;;;;21.45;15.88;;;14.90;99.90;;;;;;4897776;29;20140;-75
2023/09/27 00:19:50;;;;;;;23.33;16.58;;;14.90;99.90;;;;;;4897655;29;20056;-75
2023/09/27 00:22:37;;;;;;;25.02;17.67;;;14.80;99.90;;;;;;4896826;29;20066;-76
2023/09/27 00:25:23;;;;;;;24.15;18.30;;;14.80;99.90;;;;;;4896719;28;20064;-75
2023/09/27 00:28:09;;;;;;;26.40;19.88;;;14.80;99.90;;;;;;4880540;29;20139;-79
2023/09/27 00:30:55;;;;;;;28.00;20.35;;;14.80;99.90;;;;;;4879101;29;20067;-76
2023/09/27 00:33:42;;;;;;;26.27;18.02;;;14.80;99.90;;;;;;4896855;29;20139;-81
2023/09/27 00:36:28;;;;;;;24.95;18.13;;;14.80;99.90;;;;;;4897292;29;20507;-80
2023/09/27 00:39:14;;;;;;;21.95;16.58;;;14.80;99.90;;;;;;4897016;29;20064;-81
2023/09/27 00:42:00;;;;;;;21.55;16.30;;;14.80;99.90;;;;;;4882111;29;20057;-81
2023/09/27 00:44:46;;;;;;;21.25;15.80;;;14.70;99.90;;;;;;4896907;29;20061;-81
2023/09/27 00:47:33;;;;;;;21.95;15.75;;;14.70;99.90;;;;;;4868091;29;20056;-76
2023/09/27 00:50:19;;;;;;;27.10;19.38;;;14.70;99.90;;;;;;4897358;29;20056;-79
2023/09/27 00:53:05;;;;;;;28.13;20.02;;;14.70;99.90;;;;;;4895837;29;20123;-76
2023/09/27 00:55:53;;;;;;;23.73;17.10;;;14.60;99.90;;;;;;4896585;29;20060;-73
2023/09/27 00:58:39;;;;;;;25.33;20.02;;;14.60;99.90;;;;;;4896249;29;20493;-77
2023/09/27 01:01:26;;;;;;;25.48;19.90;;;14.60;99.90;;;;;;4879356;29;20104;-76
2023/09/27 01:04:15;;;;;;;27.83;20.02;;;14.60;99.90;;;;;;4896832;29;20057;-75
2023/09/27 01:07:01;;;;;;;25.23;18.13;;;14.60;99.90;;;;;;4896722;29;20052;-79
2023/09/27 01:09:48;;;;;;;28.27;19.95;;;14.60;99.90;;;;;;4904137;28;20489;-79
2023/09/27 01:12:34;;;;;;;26.10;20.13;;;14.60;99.90;;;;;;4867704;29;20061;-77
2023/09/27 01:15:21;;;;;;;25.67;20.42;;;14.60;99.90;;;;;;4896242;29;20052;-76
2023/09/27 01:18:07;;;;;;;31.88;20.33;;;14.60;99.90;;;;;;4879141;29;20052;-75
2023/09/27 01:20:53;;;;;;;25.40;19.15;;;14.60;99.90;;;;;;4879025;29;20143;-80
2023/09/27 01:23:41;;;;;;;30.45;21.58;;;14.60;99.90;;;;;;4896873;28;20525;-75
2023/09/27 01:26:28;;;;;;;26.13;18.55;;;14.60;99.90;;;;;;4896163;29;20442;-74
2023/09/27 01:29:14;;;;;;;26.02;20.23;;;14.60;99.90;;;;;;4896111;29;20405;-76
2023/09/27 01:32:00;;;;;;;29.48;21.23;;;14.60;99.90;;;;;;4896747;29;20155;-76
2023/09/27 01:34:46;;;;;;;25.65;19.45;;;14.60;99.90;;;;;;4897109;28;20134;-75
2023/09/27 01:37:33;;;;;;;27.58;20.38;;;14.60;99.90;;;;;;4897097;28;20059;-78
2023/09/27 01:40:22;;;;;;;31.92;21.30;;;14.60;99.90;;;;;;4896476;29;20060;-77
2023/09/27 01:43:08;;;;;;;29.83;21.38;;;14.50;99.90;;;;;;4896632;29;20057;-77
2023/09/27 01:45:54;;;;;;;27.08;21.50;;;14.50;99.90;;;;;;4896541;29;20053;-81
2023/09/27 01:48:40;;;;;;;23.50;16.80;;;14.50;99.90;;;;;;4897863;28;20580;-82
2023/09/27 01:51:26;;;;;;;28.98;21.52;;;14.60;99.90;;;;;;4902521;28;20063;-75
2023/09/27 01:54:12;;;;;;;23.88;18.20;;;14.50;99.90;;;;;;4884853;29;20111;-76
2023/09/27 01:56:58;;;;;;;25.92;18.13;;;14.50;99.90;;;;;;4882820;29;20210;-79
2023/09/27 01:59:44;;;;;;;32.28;20.95;;;14.50;99.90;;;;;;4885724;29;20056;-76
2023/09/27 02:02:30;;;;;;;25.42;19.00;;;14.50;99.90;;;;;;4900211;28;20052;-77
2023/09/27 02:05:17;;;;;;;30.38;22.15;;;14.50;99.90;;;;;;4900356;28;20453;-77
2023/09/27 02:08:03;;;;;;;24.90;19.20;;;14.50;99.90;;;;;;4898455;29;20640;-77
2023/09/27 02:10:52;;;;;;;25.95;19.30;;;14.50;99.90;;;;;;4900283;29;20048;-76
2023/09/27 02:13:38;;;;;;;25.58;18.75;;;14.40;99.90;;;;;;4900236;29;20060;-78
2023/09/27 02:16:24;;;;;;;26.40;19.30;;;14.40;99.90;;;;;;4899462;29;20060;-76
2023/09/27 02:19:10;;;;;;;27.85;20.23;;;14.40;99.90;;;;;;4882202;29;20087;-75
2023/09/27 02:21:56;;;;;;;26.90;19.42;;;14.40;99.90;;;;;;4878517;29;20057;-75
2023/09/27 02:24:42;;;;;;;26.17;18.92;;;14.40;99.90;;;;;;4880919;29;20533;-79
2023/09/27 02:27:28;;;;;;;25.80;19.13;;;14.40;99.90;;;;;;4895225;29;20053;-75
2023/09/27 02:30:15;;;;;;;24.60;18.58;;;14.50;99.90;;;;;;4863727;29;20063;-75
2023/09/27 02:33:01;;;;;;;33.22;22.95;;;14.50;99.90;;;;;;4880314;29;20071;-77
2023/09/27 02:35:48;;;;;;;31.30;22.17;;;14.50;99.90;;;;;;4880931;29;20060;-81
2023/09/27 02:38:36;;;;;;;29.60;21.98;;;14.50;99.90;;;;;;4880403;29;20128;-79
2023/09/27 02:41:22;;;;;;;32.03;22.45;;;14.50;99.90;;;;;;4883090;29;20049;-76
2023/09/27 02:44:08;;;;;;;34.00;21.98;;;14.50;99.90;;;;;;4887618;29;20053;-79
2023/09/27 02:46:57;;;;;;;25.35;18.55;;;14.50;99.90;;;;;;4886745;29;20156;-76
2023/09/27 02:49:43;;;;;;;31.77;20.83;;;14.50;99.90;;;;;;4881807;29;20060;-73
2023/09/27 02:52:29;;;;;;;25.35;19.70;;;14.50;99.90;;;;;;4894489;29;20053;-76
2023/09/27 02:55:15;;;;;;;28.55;21.17;;;14.50;99.90;;;;;;4866845;29;20104;-74
2023/09/27 02:58:01;;;;;;;30.27;22.30;;;14.50;99.90;;;;;;4879187;29;20049;-76
2023/09/27 03:00:48;;;;;;;26.95;19.88;;;14.50;99.90;;;;;;4893978;29;20463;-76
2023/09/27 03:03:34;;;;;;;28.27;20.55;;;14.50;99.90;;;;;;4878337;29;20061;-77
2023/09/27 03:06:20;;;;;;;27.00;20.20;;;14.50;99.90;;;;;;4879139;29;20516;-76
2023/09/27 03:09:08;;;;;;;28.98;19.90;;;14.50;99.90;;;;;;4894284;29;20060;-78
2023/09/27 03:11:54;;;;;;;27.23;19.52;;;14.50;99.90;;;;;;4879561;29;20604;-75
2023/09/27 03:14:40;;;;;;;29.83;22.25;;;14.50;99.90;;;;;;4879676;29;20053;-75
2023/09/27 03:17:27;;;;;;;27.58;21.48;;;14.50;99.90;;;;;;4862975;29;20529;-77
2023/09/27 03:20:16;;;;;;;28.75;21.38;;;14.50;99.90;;;;;;4879326;29;20052;-76
2023/09/27 03:23:02;;;;;;;26.10;20.70;;;14.40;99.90;;;;;;4878688;29;20053;-75
2023/09/27 03:25:49;;;;;;;31.00;21.60;;;14.40;99.90;;;;;;4862321;29;20235;-76
2023/09/27 03:28:35;;;;;;;28.83;21.40;;;14.40;99.90;;;;;;4862225;29;20056;-77
2023/09/27 03:31:21;;;;;;;29.13;21.73;;;14.40;99.90;;;;;;4862891;29;20061;-76
2023/09/27 03:34:07;;;;;;;31.88;22.30;;;14.40;99.90;;;;;;4878626;29;20064;-75
2023/09/27 03:36:56;;;;;;;37.65;24.98;;;14.40;99.90;;;;;;4878530;29;20108;-76
2023/09/27 03:39:42;;;;;;;35.28;23.40;;;14.50;99.90;;;;;;4878716;29;20057;-77
2023/09/27 03:42:29;;;;;;;33.30;23.02;;;14.50;99.90;;;;;;4878795;29;20151;-79
2023/09/27 03:45:16;;;;;;;36.03;24.40;;;14.50;99.90;;;;;;4864515;29;20061;-76
2023/09/27 03:48:02;;;;;;;30.27;22.00;;;14.50;99.90;;;;;;4878862;29;20063;-76
2023/09/27 03:50:48;;;;;;;30.77;22.25;;;14.50;99.90;;;;;;4878680;29;20074;-76
2023/09/27 03:53:35;;;;;;;30.23;23.48;;;14.50;99.90;;;;;;4864635;29;20045;-74
2023/09/27 03:56:22;;;;;;;32.38;22.88;;;14.40;99.90;;;;;;4878598;29;20066;-77
2023/09/27 03:59:08;;;;;;;30.48;22.60;;;14.40;99.90;;;;;;4879002;29;20049;-77
2023/09/27 04:01:55;;;;;;;27.02;20.17;;;14.40;99.90;;;;;;4878369;29;20139;-79
2023/09/27 04:04:41;;;;;;;33.17;24.52;;;14.30;99.90;;;;;;4878375;29;20072;-77
2023/09/27 04:07:27;;;;;;;32.08;23.13;;;14.30;99.90;;;;;;4878483;29;20109;-81
2023/09/27 04:10:13;;;;;;;32.50;24.27;;;14.20;99.90;;;;;;4848236;29;20057;-81
2023/09/27 04:12:59;;;;;;;28.05;20.13;;;14.20;99.90;;;;;;4878808;29;20429;-79
2023/09/27 04:15:49;;;;;;;32.53;21.92;;;14.10;99.90;;;;;;4878174;29;20053;-82
2023/09/27 04:18:36;;;;;;;27.30;19.67;;;14.10;99.90;;;;;;4878813;29;20080;-80
2023/09/27 04:21:22;;;;;;;32.65;24.48;;;14.00;99.90;;;;;;4886552;29;20068;-81
2023/09/27 04:24:08;;;;;;;31.15;22.83;;;14.00;99.90;;;;;;4879839;29;20052;-81
2023/09/27 04:26:54;;;;;;;29.10;22.27;;;13.90;99.90;;;;;;4896896;29;20092;-81
2023/09/27 04:29:40;;;;;;;31.00;22.90;;;13.90;99.90;;;;;;4897035;29;20055;-80
2023/09/27 04:32:26;;;;;;;29.77;21.38;;;13.90;99.90;;;;;;4880847;29;20060;-81
2023/09/27 04:35:13;;;;;;;30.60;24.80;;;13.80;99.90;;;;;;4897058;29;20052;-75
2023/09/27 04:37:59;;;;;;;30.55;22.08;;;13.80;99.90;;;;;;4896878;29;20056;-81
2023/09/27 04:40:46;;;;;;;31.67;23.08;;;13.70;99.90;;;;;;4896342;29;20052;-78
2023/09/27 04:43:32;;;;;;;30.90;21.15;;;13.70;99.90;;;;;;4896323;29;20056;-78
2023/09/27 04:46:18;;;;;;;31.42;24.40;;;13.70;99.90;;;;;;4879716;29;20056;-77
2023/09/27 04:49:05;;;;;;;30.60;24.75;;;13.60;99.90;;;;;;4897270;28;20057;-78
2023/09/27 04:51:51;;;;;;;35.33;27.10;;;13.60;99.90;;;;;;4882189;29;20066;-78
2023/09/27 04:54:37;;;;;;;35.78;26.52;;;13.60;99.90;;;;;;4896573;29;20048;-79
2023/09/27 04:57:24;;;;;;;36.50;26.35;;;13.50;99.90;;;;;;4880101;29;20405;-78
2023/09/27 05:00:18;;;;;;;33.95;25.50;;;13.50;99.90;;;;;;4897491;28;20099;-75
2023/09/27 05:03:04;;;;;;;35.15;26.60;;;13.50;99.90;;;;;;4897101;28;20096;-80
2023/09/27 05:05:50;;;;;;;30.45;22.65;;;13.50;99.90;;;;;;4867394;29;20058;-80
2023/09/27 05:08:36;;;;;;;34.83;25.90;;;13.50;99.90;;;;;;4896690;29;20059;-79
2023/09/27 05:11:22;;;;;;;45.13;31.35;;;13.50;99.90;;;;;;4897088;29;20113;-78
2023/09/27 05:14:08;;;;;;;33.72;26.08;;;13.50;99.90;;;;;;4900122;29;20064;-81
2023/09/27 05:16:54;;;;;;;38.72;29.10;;;13.50;99.90;;;;;;4897244;29;20054;-79
2023/09/27 05:19:40;;;;;;;35.47;25.17;;;13.50;99.90;;;;;;4879597;29;20386;-80
2023/09/27 05:22:26;;;;;;;35.92;27.45;;;13.50;99.90;;;;;;4895735;29;20120;-77
2023/09/27 05:25:13;;;;;;;38.92;28.38;;;13.50;99.90;;;;;;4898074;29;20396;-80
2023/09/27 05:27:59;;;;;;;39.05;27.60;;;13.50;99.90;;;;;;4899958;29;20052;-78
2023/09/27 05:30:46;;;;;;;32.38;24.52;;;13.50;99.90;;;;;;4899914;29;20056;-77
2023/09/27 05:33:32;;;;;;;45.15;31.42;;;13.60;99.90;;;;;;4900091;29;20080;-78
2023/09/27 05:36:18;;;;;;;35.03;26.20;;;13.50;99.90;;;;;;4900379;29;20060;-78
2023/09/27 05:39:05;;;;;;;38.67;28.48;;;13.60;99.90;;;;;;4870542;29;20462;-77
2023/09/27 05:41:52;;;;;;;38.03;26.73;;;13.60;99.90;;;;;;4883079;29;20056;-79
2023/09/27 05:44:38;;;;;;;34.40;25.35;;;13.60;99.90;;;;;;4899385;29;20059;-76
2023/09/27 05:47:24;;;;;;;36.47;27.48;;;13.60;99.90;;;;;;4899574;29;20049;-74
2023/09/27 05:50:12;;;;;;;39.55;27.65;;;13.60;99.90;;;;;;4898727;29;20044;-78
2023/09/27 05:52:59;;;;;;;41.75;29.73;;;13.60;99.90;;;;;;4898640;29;20147;-78
2023/09/27 05:55:47;;;;;;;39.00;28.48;;;13.60;99.90;;;;;;4898851;29;20064;-81
2023/09/27 05:58:35;;;;;;;35.45;26.67;;;13.60;99.90;;;;;;4898546;29;20425;-80
2023/09/27 06:01:21;;;;;;;42.22;29.98;;;13.60;99.90;;;;;;4899067;29;20138;-80
2023/09/27 06:04:07;;;;;;;44.63;30.65;;;13.60;99.90;;;;;;4882499;29;20095;-76
2023/09/27 06:06:53;;;;;;;36.70;27.48;;;13.60;99.90;;;;;;4899576;29;20100;-75
2023/09/27 06:09:43;;;;;;;37.25;27.17;;;13.70;99.90;;;;;;4882920;29;20059;-76
2023/09/27 06:12:31;;;;;;;35.75;27.02;;;13.70;99.90;;;;;;4899619;29;20787;-75
2023/09/27 06:15:17;;;;;;;40.97;29.20;;;13.70;99.90;;;;;;4899711;29;20056;-77
2023/09/27 06:18:04;;;;;;;47.92;31.42;;;13.70;99.90;;;;;;4881342;29;20060;-76
2023/09/27 06:20:50;;;;;;;46.22;30.67;;;13.70;99.90;;;;;;4898441;29;20056;-75
2023/09/27 06:23:36;;;;;;;44.85;31.52;;;13.80;99.90;;;;;;4900371;29;20489;-76
2023/09/27 06:26:22;;;;;;;38.90;28.20;;;13.80;99.90;;;;;;4901044;29;20052;-76
2023/09/27 06:29:09;;;;;;;47.47;31.42;;;13.80;99.90;;;;;;4898550;29;20053;-80
2023/09/27 06:31:55;;;;;;;41.47;28.77;;;13.90;99.90;;;;;;4898654;29;20052;-81
2023/09/27 06:34:41;;;;;;;45.80;33.90;;;13.90;99.90;;;;;;4899313;29;20135;-81
2023/09/27 06:37:28;;;;;;;42.40;31.05;;;14.00;99.90;;;;;;4881594;29;20442;-80
2023/09/27 06:40:16;;;;;;;39.42;31.13;;;14.00;99.90;;;;;;4899160;29;20052;-80
2023/09/27 06:43:04;;;;;;;43.47;32.35;;;14.10;99.90;;;;;;4898754;29;20056;-80
2023/09/27 06:45:50;;;;;;;45.92;32.20;;;14.20;99.90;;;;;;4899207;29;20048;-80
2023/09/27 06:48:37;;;;;;;42.80;31.70;;;14.20;99.90;;;;;;4897486;29;20048;-80
2023/09/27 06:51:24;;;;;;;48.53;34.33;;;14.40;99.90;;;;;;4899106;29;20068;-77
2023/09/27 06:54:10;;;;;;;49.28;32.58;;;14.50;99.90;;;;;;4900237;29;20053;-76
2023/09/27 06:56:56;;;;;;;44.13;32.88;;;14.60;99.90;;;;;;4898178;29;20516;-81
2023/09/27 06:59:42;;;;;;;46.58;32.20;;;14.80;99.90;;;;;;4898755;29;20064;-77
2023/09/27 07:02:28;;;;;;;41.55;31.83;;;14.80;99.90;;;;;;4884547;29;20063;-77
2023/09/27 07:05:15;;;;;;;45.83;33.90;;;14.90;99.90;;;;;;4898919;29;20084;-81
2023/09/27 07:08:01;;;;;;;41.33;31.92;;;15.10;99.90;;;;;;4898400;29;20056;-80
2023/09/27 07:10:47;;;;;;;42.10;30.70;;;15.20;99.90;;;;;;4897450;29;20139;-75
2023/09/27 07:13:34;;;;;;;40.75;31.80;;;15.30;99.90;;;;;;4868134;29;20052;-75
2023/09/27 07:16:26;;;;;;;45.05;31.77;;;15.40;99.90;;;;;;4898170;28;20128;-79
2023/09/27 07:19:12;;;;;;;46.33;32.55;;;15.50;99.90;;;;;;4897250;29;20044;-81
2023/09/27 07:21:59;;;;;;;40.40;30.48;;;15.60;99.90;;;;;;4901834;29;20084;-79
2023/09/27 07:24:45;;;;;;;40.10;27.38;;;15.80;99.90;;;;;;4897616;29;20519;-74
2023/09/27 07:27:33;;;;;;;36.33;27.45;;;15.90;99.90;;;;;;4897157;29;20521;-74
2023/09/27 07:30:23;;;;;;;39.15;29.63;;;16.00;99.90;;;;;;4868240;29;20087;-75
2023/09/27 07:33:11;;;;;;;35.05;26.58;;;16.00;99.90;;;;;;4880619;29;20056;-75
2023/09/27 07:35:58;;;;;;;39.47;29.45;;;16.00;99.90;;;;;;4896879;29;20497;-78
2023/09/27 07:38:44;;;;;;;35.03;27.88;;;16.10;99.90;;;;;;4898123;29;20060;-77
2023/09/27 07:41:31;;;;;;;34.92;26.13;;;16.20;99.90;;;;;;4897844;29;20111;-80
2023/09/27 07:44:17;;;;;;;44.50;27.83;;;16.20;99.90;;;;;;4896796;29;20064;-77
2023/09/27 07:47:04;;;;;;;38.38;27.65;;;16.30;99.90;;;;;;4866863;29;20104;-79
2023/09/27 07:49:50;;;;;;;41.15;29.25;;;16.40;99.90;;;;;;4898398;29;20049;-79
2023/09/27 07:52:37;;;;;;;38.90;27.23;;;16.50;99.90;;;;;;4900341;29;20060;-76
2023/09/27 07:55:23;;;;;;;36.53;26.60;;;16.50;99.90;;;;;;4896356;29;20056;-77
2023/09/27 07:58:12;;;;;;;38.10;27.63;;;16.50;99.90;;;;;;4897139;29;20838;-77
2023/09/27 08:00:58;;;;;;;31.30;25.23;;;16.60;99.90;;;;;;4884515;29;20084;-75
2023/09/27 08:03:44;;;;;;;37.00;26.63;;;16.70;99.90;;;;;;4882958;29;20147;-75
2023/09/27 08:06:30;;;;;;;40.40;26.63;;;16.80;99.90;;;;;;4867388;29;20470;-76
2023/09/27 08:09:17;;;;;;;35.63;26.95;;;16.80;99.90;;;;;;4880060;29;20052;-76
2023/09/27 08:12:03;;;;;;;34.05;26.77;;;16.90;99.90;;;;;;4896633;29;20449;-80
2023/09/27 08:14:49;;;;;;;32.83;25.27;;;17.00;99.90;;;;;;4897229;29;20083;-78
2023/09/27 08:17:35;;;;;;;37.03;28.27;;;17.10;99.90;;;;;;4880440;29;20048;-75
2023/09/27 08:20:21;;;;;;;36.45;25.02;;;17.30;99.90;;;;;;4898617;29;20417;-79
2023/09/27 08:23:08;;;;;;;34.78;26.85;;;17.40;99.90;;;;;;4896686;29;20777;-79
2023/09/27 08:25:55;;;;;;;36.15;25.58;;;17.60;99.90;;;;;;4896343;29;20063;-77
2023/09/27 08:28:41;;;;;;;36.63;25.30;;;17.70;99.90;;;;;;4897008;29;20073;-80
2023/09/27 08:31:30;;;;;;;31.50;24.45;;;17.80;99.90;;;;;;4896005;29;20108;-78
2023/09/27 08:34:16;;;;;;;34.67;24.65;;;17.90;99.90;;;;;;4880093;29;20063;-77
2023/09/27 08:37:03;;;;;;;34.67;23.65;;;18.00;99.90;;;;;;4897267;29;20108;-79
2023/09/27 08:39:49;;;;;;;28.20;21.50;;;18.20;99.90;;;;;;4882835;29;20425;-80
2023/09/27 08:42:36;;;;;;;31.42;22.70;;;18.40;99.90;;;;;;4896977;29;20092;-79
2023/09/27 08:45:23;;;;;;;29.50;21.73;;;18.40;99.90;;;;;;4902973;29;20048;-81
2023/09/27 08:48:13;;;;;;;32.03;22.35;;;18.60;99.90;;;;;;4895474;29;20526;-82
2023/09/27 08:51:04;;;;;;;32.08;22.52;;;18.70;99.90;;;;;;4867564;29;20514;-79
2023/09/27 08:53:50;;;;;;;28.02;20.63;;;18.80;99.90;;;;;;4897345;29;20492;-80
2023/09/27 08:56:37;;;;;;;31.10;20.50;;;18.90;99.90;;;;;;4882268;29;20135;-80
2023/09/27 08:59:23;;;;;;;32.60;22.48;;;18.80;99.90;;;;;;4895022;29;20111;-81
2023/09/27 09:02:10;;;;;;;26.77;19.77;;;18.90;99.90;;;;;;4888404;29;20057;-81
2023/09/27 09:04:56;;;;;;;29.27;20.23;;;19.00;99.90;;;;;;4900640;29;20690;-80
2023/09/27 09:07:42;;;;;;;32.55;21.15;;;19.20;99.90;;;;;;4900056;29;20104;-80
2023/09/27 09:10:28;;;;;;;27.02;18.70;;;19.30;99.90;;;;;;4883587;29;20135;-79
2023/09/27 09:13:15;;;;;;;25.98;19.15;;;19.40;99.90;;;;;;4900135;29;20116;-80
2023/09/27 09:16:13;;;;;;;30.27;19.77;;;19.30;99.90;;;;;;4883299;29;20424;-75
2023/09/27 09:19:22;;;;;;;29.90;19.10;;;19.30;99.90;;;;;;4900836;29;20056;-74
2023/09/27 09:22:11;;;;;;;25.83;17.10;;;19.40;99.90;;;;;;4900014;29;20108;-75
2023/09/27 09:24:59;;;;;;;34.42;18.88;;;19.50;99.90;;;;;;4898839;29;20056;-77
2023/09/27 09:28:04;;;;;;;25.15;16.85;;;19.70;99.90;;;;;;4869402;29;20132;-75
2023/09/27 09:30:50;;;;;;;28.80;17.42;;;19.90;99.90;;;;;;4883075;29;20044;-76
2023/09/27 09:33:38;;;;;;;23.50;14.40;;;20.00;99.90;;;;;;4899683;29;20450;-79
2023/09/27 09:36:28;;;;;;;29.88;17.02;;;20.20;99.90;;;;;;4900035;29;20147;-81
2023/09/27 09:39:14;;;;;;;28.25;15.57;;;20.20;99.90;;;;;;4899871;29;20055;-78
2023/09/27 09:42:02;;;;;;;28.73;17.00;;;20.10;99.90;;;;;;4887347;29;20053;-80
2023/09/27 09:45:02;;;;;;;26.10;16.60;;;20.00;99.90;;;;;;4900176;29;20127;-79
2023/09/27 09:47:49;;;;;;;30.80;15.93;;;20.10;99.90;;;;;;4899500;29;20060;-75
2023/09/27 09:50:36;;;;;;;30.05;14.85;;;20.10;99.90;;;;;;4901735;29;20135;-75
2023/09/27 09:53:23;;;;;;;28.95;17.58;;;20.20;99.90;;;;;;4903026;29;20088;-78
2023/09/27 09:56:11;;;;;;;25.23;15.45;;;20.20;99.90;;;;;;4906219;29;20048;-75
2023/09/27 09:59:07;;;;;;;27.05;16.23;;;20.40;99.90;;;;;;4901280;28;20157;-75
2023/09/27 10:01:56;;;;;;;23.50;15.45;;;20.50;99.90;;;;;;4899308;29;20060;-77
2023/09/27 10:04:42;;;;;;;26.83;16.52;;;20.70;99.90;;;;;;4899310;29;20441;-75
2023/09/27 10:07:29;;;;;;;25.58;15.50;;;20.70;99.90;;;;;;4899362;29;20056;-76
2023/09/27 10:10:19;;;;;;;23.63;14.15;;;20.80;99.90;;;;;;4882901;29;20057;-76
2023/09/27 10:13:07;;;;;;;25.60;11.73;;;20.90;99.90;;;;;;4899975;29;20413;-79
2023/09/27 10:15:53;;;;;;;25.67;13.38;;;20.90;99.90;;;;;;4898795;29;20111;-76
2023/09/27 10:18:41;;;;;;;25.50;13.35;;;20.80;99.90;;;;;;4898783;29;20529;-76
2023/09/27 10:21:27;;;;;;;23.20;13.93;;;20.70;99.90;;;;;;4897860;29;20205;-74
2023/09/27 10:24:26;;;;;;;18.00;12.15;;;20.70;99.90;;;;;;4899960;29;20056;-77
2023/09/27 10:27:12;;;;;;;20.55;12.35;;;20.60;99.90;;;;;;4898638;29;20232;-74
2023/09/27 10:30:00;;;;;;;21.83;10.18;;;20.50;99.90;;;;;;4868878;29;20064;-75
2023/09/27 10:32:46;;;;;;;20.67;11.15;;;20.50;99.90;;;;;;4899377;28;20164;-75
2023/09/27 10:35:33;;;;;;;21.35;10.18;;;20.40;99.90;;;;;;4899032;29;20049;-75
2023/09/27 10:38:19;;;;;;;30.77;11.60;;;20.40;99.90;;;;;;4869172;29;20068;-76
2023/09/27 10:41:05;;;;;;;20.17;10.55;;;20.40;99.90;;;;;;4898918;29;20087;-79
2023/09/27 10:43:51;;;;;;;23.35;10.88;;;20.40;99.90;;;;;;4898893;29;20211;-79
2023/09/27 10:46:48;;;;;;;19.75;10.90;;;20.40;99.90;;;;;;4898585;29;20048;-78
2023/09/27 10:49:38;;;;;;;19.67;10.15;;;20.50;99.90;;;;;;4898373;28;20064;-76
2023/09/27 10:52:26;;;;;;;18.17;8.77;;;20.50;99.90;;;;;;4884481;29;20516;-74
2023/09/27 10:55:13;;;;;;;19.67;8.93;;;20.60;99.90;;;;;;4897901;29;20151;-76
2023/09/27 10:58:00;;;;;;;15.32;6.72;;;20.70;99.90;;;;;;4884365;29;20052;-77
2023/09/27 11:00:53;;;;;;;17.10;7.95;;;20.80;99.90;;;;;;4898638;29;20500;-74
2023/09/27 11:03:39;;;;;;;17.00;7.47;;;20.80;99.90;;;;;;4898585;29;20052;-78
2023/09/27 11:06:27;;;;;;;15.27;7.55;;;20.90;99.90;;;;;;4898070;29;20053;-79
2023/09/27 11:09:13;;;;;;;19.65;8.27;;;21.00;99.90;;;;;;4899195;28;20064;-76
2023/09/27 11:11:59;;;;;;;16.08;6.88;;;21.10;99.90;;;;;;4897511;29;20059;-75
2023/09/27 11:14:45;;;;;;;15.52;6.13;;;21.10;99.90;;;;;;4896903;29;20429;-75
2023/09/27 11:17:31;;;;;;;17.88;6.53;;;21.10;99.90;;;;;;4898701;29;20056;-77
2023/09/27 11:20:20;;;;;;;12.80;7.13;;;21.10;99.90;;;;;;4881540;29;20417;-79
2023/09/27 11:23:07;;;;;;;15.25;7.30;;;21.20;99.90;;;;;;4849036;29;20063;-77
2023/09/27 11:25:53;;;;;;;15.15;7.50;;;21.40;99.90;;;;;;4862139;29;20144;-77
2023/09/27 11:28:39;;;;;;;18.10;6.78;;;21.40;99.90;;;;;;4878988;29;20060;-77
2023/09/27 11:31:36;;;;;;;13.70;6.80;;;21.60;99.90;;;;;;4862503;29;20451;-79
2023/09/27 11:34:22;;;;;;;12.57;5.63;;;21.60;99.90;;;;;;4862243;29;20506;-79
2023/09/27 11:37:17;;;;;;;13.38;6.00;;;21.60;99.90;;;;;;4879431;29;20084;-77
2023/09/27 11:40:03;;;;;;;16.35;6.40;;;21.80;99.90;;;;;;4863157;29;20120;-81
2023/09/27 11:42:50;;;;;;;12.88;6.30;;;22.00;99.90;;;;;;4879182;29;20051;-80
2023/09/27 11:45:46;;;;;;;16.50;6.18;;;22.00;99.90;;;;;;4881150;29;20053;-80
2023/09/27 11:48:34;;;;;;;14.63;5.70;;;21.90;99.90;;;;;;4879898;29;20053;-77
2023/09/27 11:51:21;;;;;;;13.15;5.97;;;21.90;99.90;;;;;;4883142;29;20118;-79
2023/09/27 11:54:08;;;;;;;13.02;5.80;;;21.80;99.90;;;;;;4889313;29;20060;-75
2023/09/27 11:56:54;;;;;;;11.63;5.75;;;22.00;99.90;;;;;;4870276;29;20061;-79
2023/09/27 11:59:40;;;;;;;17.98;6.45;;;22.30;99.90;;;;;;4888822;29;20076;-78
2023/09/27 12:02:26;;;;;;;10.65;5.97;;;22.80;99.90;;;;;;4886281;29;20053;-77
2023/09/27 12:05:13;;;;;;;16.23;6.43;;;24.20;99.90;;;;;;4884290;29;20048;-76
2023/09/27 12:08:00;;;;;;;14.60;5.07;;;24.80;99.90;;;;;;4878387;29;20056;-74
2023/09/27 12:10:46;;;;;;;10.60;4.78;;;25.10;99.90;;;;;;4882162;29;20144;-78
2023/09/27 12:13:32;;;;;;;11.43;5.07;;;25.70;99.90;;;;;;4883854;29;20161;-80
2023/09/27 12:16:20;;;;;;;13.13;4.90;;;26.40;99.90;;;;;;4879732;29;20056;-79
2023/09/27 12:19:06;;;;;;;11.02;4.20;;;27.60;99.90;;;;;;4877746;29;20048;-76
2023/09/27 12:21:52;;;;;;;12.60;4.00;;;28.50;99.40;;;;;;4889557;29;20531;-76
2023/09/27 12:24:38;;;;;;;10.02;3.88;;;29.80;97.80;;;;;;4881448;29;20049;-75
2023/09/27 12:27:24;;;;;;;10.43;4.15;;;30.90;95.40;;;;;;4896879;29;20057;-77
2023/09/27 12:30:11;;;;;;;8.25;4.18;;;30.70;93.60;;;;;;4879568;29;20132;-77
2023/09/27 12:32:57;;;;;;;11.10;4.45;;;30.80;93.30;;;;;;4882918;29;20060;-77
2023/09/27 12:35:46;;;;;;;11.07;3.42;;;31.60;92.30;;;;;;4895282;29;20059;-81
2023/09/27 12:38:32;;;;;;;9.02;3.55;;;32.30;91.50;;;;;;4895538;29;20425;-81
2023/09/27 12:41:22;;;;;;;9.32;3.65;;;33.00;89.70;;;;;;4879980;29;20061;-81
2023/09/27 12:44:08;;;;;;;9.13;3.47;;;32.70;86.70;;;;;;4896230;29;20607;-82
2023/09/27 12:46:54;;;;;;;6.68;2.70;;;33.00;86.00;;;;;;4896374;29;20052;-80
2023/09/27 12:49:40;;;;;;;8.25;3.67;;;32.50;85.70;;;;;;4867097;29;20060;-81
2023/09/27 12:52:26;;;;;;;7.72;2.38;;;32.80;85.30;;;;;;4879058;29;20069;-81
2023/09/27 12:55:12;;;;;;;10.60;3.17;;;33.60;83.60;;;;;;4896883;29;20080;-80
2023/09/27 12:57:58;;;;;;;9.77;2.90;;;33.90;82.60;;;;;;4883611;29;20090;-77
2023/09/27 13:00:45;;;;;;;7.68;3.22;;;34.70;81.30;;;;;;4897407;29;20081;-74
2023/09/27 13:03:31;;;;;;;8.27;2.50;;;35.40;78.70;;;;;;4896272;29;20374;-78
2023/09/27 13:06:17;;;;;;;12.63;2.67;;;36.00;77.10;;;;;;4896252;29;20055;-74
2023/09/27 13:09:03;;;;;;;7.43;2.40;;;36.60;75.20;;;;;;4879665;29;20108;-75
2023/09/27 13:11:49;;;;;;;5.25;2.50;;;37.10;73.80;;;;;;4895773;29;20057;-80
2023/09/27 13:14:35;;;;;;;9.02;2.65;;;36.80;71.50;;;;;;4895474;29;20053;-80
2023/09/27 13:17:23;;;;;;;6.78;3.20;;;37.10;71.00;;;;;;4896606;29;20059;-75
2023/09/27 13:20:10;;;;;;;10.13;2.67;;;37.00;69.20;;;;;;4896249;29;20104;-76
2023/09/27 13:22:56;;;;;;;7.13;2.58;;;36.50;68.70;;;;;;4878604;29;20561;-77
2023/09/27 13:25:55;;;;;;;9.30;3.28;;;36.10;69.40;;;;;;4895915;29;20068;-75
2023/09/27 13:28:41;;;;;;;7.82;2.60;;;35.50;68.90;;;;;;4896974;29;20053;-78
2023/09/27 13:31:34;;;;;;;11.05;2.63;;;35.70;69.10;;;;;;4881631;29;20057;-77
2023/09/27 13:34:20;;;;;;;6.40;3.10;;;36.60;67.30;;;;;;4896184;29;20412;-77
2023/09/27 13:37:06;;;;;;;5.63;2.42;;;37.00;68.20;;;;;;4895952;29;20057;-81
2023/09/27 13:39:52;;;;;;;8.60;3.08;;;37.40;67.30;;;;;;4896860;29;20049;-78
2023/09/27 13:42:41;;;;;;;7.95;2.80;;;38.00;66.20;;;;;;4878606;29;20057;-77
2023/09/27 13:45:27;;;;;;;6.57;2.60;;;38.40;64.60;;;;;;4896209;29;20120;-78
2023/09/27 13:48:14;;;;;;;9.77;2.55;;;38.60;63.70;;;;;;4882314;29;20151;-79
2023/09/27 13:51:00;;;;;;;4.60;2.40;;;38.40;62.50;;;;;;4899846;29;20053;-79
2023/09/27 13:53:46;;;;;;;6.22;2.67;;;38.50;62.20;;;;;;4899370;29;20059;-79
2023/09/27 13:56:32;;;;;;;7.22;3.25;;;38.90;61.30;;;;;;4900407;28;20140;-78
2023/09/27 13:59:19;;;;;;;4.72;2.38;;;38.30;61.20;;;;;;4899568;28;20071;-75
2023/09/27 14:02:06;;;;;;;6.15;2.28;;;37.70;61.70;;;;;;4902001;29;20058;-75
2023/09/27 14:04:53;;;;;;;6.05;2.42;;;37.50;63.00;;;;;;4902767;29;20059;-76
2023/09/27 14:07:42;;;;;;;6.22;2.33;;;37.90;61.90;;;;;;4884413;29;20052;-78
2023/09/27 14:10:28;;;;;;;5.55;2.33;;;38.10;61.30;;;;;;4898612;29;20079;-76